This is the latest recevied weather packets stored in our database for station/object IZ1RFL-3. If no packets are shown the sender has not sent any weather packets the latest 10 day(s).
| Time | Temp. | Humidity | Pressure | Rain* | Wind** | Luminosity | Snow |
|---|---|---|---|---|---|---|---|
| 1778181368 | 16.67° C | 53% | 1014.2 hPa | - | - | - | - |
| 1778180468 | 16.67° C | 53% | 1014.1 hPa | - | - | - | - |
| 1778179568 | 17.22° C | 51% | 1014 hPa | - | - | - | - |
| 1778178668 | 17.78° C | 49% | 1013.9 hPa | - | - | - | - |
| 1778177768 | 17.78° C | 49% | 1013.8 hPa | - | - | - | - |
| 1778176868 | 17.78° C | 49% | 1013.8 hPa | - | - | - | - |
| 1778175968 | 17.78° C | 49% | 1013.7 hPa | - | - | - | - |
| 1778175067 | 18.33° C | 47% | 1013.7 hPa | - | - | - | - |
| 1778174168 | 18.89° C | 45% | 1013.5 hPa | - | - | - | - |
| 1778173268 | 18.89° C | 46% | 1013.4 hPa | - | - | - | - |
| 1778172368 | 18.89° C | 48% | 1013.4 hPa | - | - | - | - |
| 1778171468 | 18.89° C | 53% | 1013.4 hPa | - | - | - | - |
| 1778170568 | 18.89° C | 52% | 1013.3 hPa | - | - | - | - |
| 1778169667 | 20° C | 46% | 1013.3 hPa | - | - | - | - |
| 1778168767 | 21.11° C | 38% | 1013.2 hPa | - | - | - | - |
| 1778167867 | 21.11° C | 36% | 1013.3 hPa | - | - | - | - |
| 1778166967 | 21.67° C | 35% | 1013.3 hPa | - | - | - | - |
| 1778166067 | 21.67° C | 32% | 1013.4 hPa | - | - | - | - |
| 1778165168 | 21.11° C | 33% | 1013.4 hPa | - | - | - | - |
| 1778164267 | 21.67° C | 37% | 1013.5 hPa | - | - | - | - |
| 1778163368 | 21.67° C | 33% | 1013.7 hPa | - | - | - | - |
| 1778162467 | 22.22° C | 35% | 1013.9 hPa | - | - | - | - |
| 1778161567 | 21.67° C | 39% | 1014 hPa | - | - | - | - |
| 1778160667 | 20.56° C | 40% | 1014.2 hPa | - | - | - | - |
| 1778159767 | 20.56° C | 43% | 1014.2 hPa | - | - | - | - |
* Rain since midnight (hover to see other rain measurements)
** Current wind speed in m/s (hover to see current wind gust speed)